Time;durP1;ratioP1;P1;durP2;ratioP2;P2;SDS_P1;SDS_P2;PMS_P1;PMS_P2;Temp;Humidity;BMP_temperature;BMP_pressure;BME280_temperature;BME280_humidity;BME280_pressure;Samples;Min_cycle;Max_cycle;Signal;HPM_P1;HPM_P2
2020/12/04 00:01:31;;;;;;;14.85;6.82;;;;;;;0.77;80.67;97820.44;5095861;28;20040;-47
2020/12/04 00:03:58;;;;;;;11.52;7.03;;;;;;;0.76;80.54;97816.91;5096505;28;20106;-49
2020/12/04 00:06:24;;;;;;;7.45;5.38;;;;;;;0.76;80.55;97824.28;5095835;28;20074;-51
2020/12/04 00:08:50;;;;;;;8.10;4.95;;;;;;;0.75;80.54;97828.13;5095992;28;20127;-49
2020/12/04 00:11:17;;;;;;;13.57;4.82;;;;;;;0.75;80.61;97817.25;5095031;28;20430;-48
2020/12/04 00:13:43;;;;;;;9.95;4.70;;;;;;;0.73;80.66;97822.25;5076519;28;20032;-51
2020/12/04 00:16:09;;;;;;;9.60;5.13;;;;;;;0.73;80.69;97820.34;5095127;28;20088;-48
2020/12/04 00:18:35;;;;;;;7.18;4.65;;;;;;;0.72;80.48;97824.19;5095350;28;20047;-48
2020/12/04 00:21:02;;;;;;;11.10;4.75;;;;;;;0.72;80.69;97820.66;5067774;28;20382;-52
2020/12/04 00:23:28;;;;;;;9.90;5.07;;;;;;;0.70;80.49;97820.25;5090170;28;20059;-49
2020/12/04 00:25:55;;;;;;;12.25;7.15;;;;;;;0.68;80.30;97820.59;5091153;28;20041;-48
2020/12/04 00:28:21;;;;;;;11.77;7.55;;;;;;;0.66;80.64;97805.75;5091257;28;20152;-49
2020/12/04 00:30:47;;;;;;;15.02;9.15;;;;;;;0.67;80.71;97810.06;5095447;28;20036;-50
2020/12/04 00:33:14;;;;;;;16.38;8.90;;;;;;;0.68;80.59;97814.38;5095349;28;20079;-51
2020/12/04 00:35:41;;;;;;;11.07;6.38;;;;;;;0.63;80.69;97807.25;5073781;28;20056;-48
2020/12/04 00:38:07;;;;;;;9.20;6.25;;;;;;;0.60;80.77;97814.19;5075698;28;20052;-50
2020/12/04 00:40:33;;;;;;;10.95;5.55;;;;;;;0.56;80.69;97807.84;5074448;28;20098;-48
2020/12/04 00:42:59;;;;;;;10.77;6.20;;;;;;;0.55;80.74;97814.47;5088813;28;20473;-50
2020/12/04 00:45:26;;;;;;;10.48;5.43;;;;;;;0.54;81.21;97818.31;5095316;28;20047;-50
2020/12/04 00:47:52;;;;;;;9.10;5.00;;;;;;;0.53;80.79;97811.28;5094922;28;20507;-49
2020/12/04 00:50:18;;;;;;;8.23;5.13;;;;;;;0.50;80.82;97809.25;5095042;28;20075;-48
2020/12/04 00:52:45;;;;;;;8.57;4.22;;;;;;;0.46;80.74;97808.38;5094667;28;20072;-50
2020/12/04 00:55:11;;;;;;;9.35;4.90;;;;;;;0.45;80.83;97801.34;5075133;28;20465;-50
2020/12/04 00:57:37;;;;;;;8.88;4.03;;;;;;;0.46;80.83;97800.22;5084961;28;20036;-48
2020/12/04 01:00:06;;;;;;;8.82;4.85;;;;;;;0.42;80.82;97804.81;5094969;28;20040;-48
2020/12/04 01:02:32;;;;;;;9.43;5.85;;;;;;;0.38;80.99;97809.34;5095107;28;20070;-50
2020/12/04 01:04:59;;;;;;;8.35;4.53;;;;;;;0.35;80.98;97799.16;5094667;28;20044;-48
2020/12/04 01:07:25;;;;;;;7.97;4.70;;;;;;;0.33;81.07;97806.88;5094262;28;20036;-49
2020/12/04 01:09:51;;;;;;;11.13;4.70;;;;;;;0.28;81.05;97793.53;5076948;28;20047;-49
2020/12/04 01:12:18;;;;;;;10.07;5.05;;;;;;;0.25;81.33;97793.44;5093939;28;20486;-49
2020/12/04 01:14:44;;;;;;;8.75;5.55;;;;;;;0.23;81.43;97793.00;5095027;28;20075;-52
2020/12/04 01:17:10;;;;;;;8.63;5.13;;;;;;;0.23;81.22;97796.53;5093909;28;20439;-50
2020/12/04 01:19:37;;;;;;;8.30;4.88;;;;;;;0.24;81.50;97800.03;5075651;28;20078;-49
2020/12/04 01:22:04;;;;;;;10.07;5.78;;;;;;;0.23;81.14;97796.53;5077148;28;20068;-50
2020/12/04 01:24:30;;;;;;;10.95;4.80;;;;;;;0.21;81.12;97798.81;5094703;28;20040;-48
2020/12/04 01:26:57;;;;;;;9.88;5.03;;;;;;;0.22;81.34;97792.22;5093371;28;20040;-48
2020/12/04 01:29:23;;;;;;;10.70;5.38;;;;;;;0.23;81.47;97791.09;5094024;28;20044;-48
2020/12/04 01:31:49;;;;;;;11.85;5.60;;;;;;;0.22;81.32;97789.50;5093513;28;20040;-48
2020/12/04 01:34:15;;;;;;;10.70;5.50;;;;;;;0.20;81.30;97789.06;5076327;28;20044;-47
2020/12/04 01:36:42;;;;;;;7.13;5.38;;;;;;;0.21;81.39;97787.94;5086342;28;20130;-51
2020/12/04 01:39:08;;;;;;;14.35;5.75;;;;;;;0.20;81.42;97791.78;5076516;28;20040;-51
2020/12/04 01:41:35;;;;;;;11.35;5.65;;;;;;;0.17;81.60;97787.03;5078235;28;20036;-50
2020/12/04 01:44:03;;;;;;;8.75;5.32;;;;;;;0.16;81.42;97799.03;5100956;28;20040;-49
2020/12/04 01:46:30;;;;;;;11.70;6.35;;;;;;;0.14;81.55;97795.88;5090918;28;20052;-49
2020/12/04 01:48:56;;;;;;;9.07;5.57;;;;;;;0.17;81.58;97810.72;5091731;28;20547;-51
2020/12/04 01:51:24;;;;;;;8.68;5.70;;;;;;;0.15;81.85;97794.75;5072630;28;20064;-50
2020/12/04 01:53:51;;;;;;;11.30;5.93;;;;;;;0.13;81.92;97796.25;5077910;28;20078;-51
2020/12/04 01:56:18;;;;;;;10.38;5.70;;;;;;;0.10;81.96;97803.16;5084690;28;20051;-54
2020/12/04 01:58:44;;;;;;;8.77;5.68;;;;;;;0.10;81.77;97800.44;5086368;28;20543;-49
2020/12/04 02:01:13;;;;;;;9.18;5.85;;;;;;;0.13;81.73;97790.81;5080471;28;20067;-51
2020/12/04 02:03:41;;;;;;;11.02;6.07;;;;;;;0.11;82.09;97788.41;5091208;28;20051;-51
2020/12/04 02:06:18;;;;;;;9.65;6.40;;;;;;;0.11;81.89;97796.56;5090872;28;20177;-53
2020/12/04 02:09:08;;;;;;;11.52;6.22;;;;;;;0.10;82.36;97792.28;5088322;28;20063;-49
2020/12/04 02:11:36;;;;;;;8.70;5.03;;;;;;;0.12;81.74;97798.16;5090500;28;20164;-51
2020/12/04 02:14:03;;;;;;;17.17;6.57;;;;;;;0.12;82.23;97806.31;5090330;28;20056;-51
2020/12/04 02:16:30;;;;;;;10.63;6.78;;;;;;;0.12;82.10;97795.44;5091517;28;20037;-52
2020/12/04 02:18:56;;;;;;;8.95;5.75;;;;;;;0.12;82.10;97795.44;5090906;28;20040;-49
2020/12/04 02:21:26;;;;;;;9.07;4.82;;;;;;;0.10;82.18;97797.72;5090266;28;20064;-48
2020/12/04 02:23:52;;;;;;;7.95;4.93;;;;;;;0.13;82.08;97797.03;5085266;28;20400;-49
2020/12/04 02:26:20;;;;;;;7.38;4.80;;;;;;;0.15;82.12;97802.91;5091158;28;20094;-52
2020/12/04 02:28:47;;;;;;;8.82;5.22;;;;;;;0.17;82.16;97803.34;5078385;28;20087;-52
2020/12/04 02:31:14;;;;;;;8.27;4.85;;;;;;;0.17;82.12;97808.00;5089111;28;20142;-52
2020/12/04 02:33:41;;;;;;;7.82;4.40;;;;;;;0.18;82.15;97810.38;5093893;28;20153;-49
2020/12/04 02:36:09;;;;;;;9.80;5.30;;;;;;;0.19;82.10;97802.97;5071840;28;20041;-50
2020/12/04 02:38:36;;;;;;;6.32;3.70;;;;;;;0.21;82.25;97811.63;5065138;28;20044;-48
2020/12/04 02:41:06;;;;;;;7.65;4.32;;;;;;;0.20;82.10;97813.53;5062857;28;20059;-50
2020/12/04 02:43:32;;;;;;;9.20;5.80;;;;;;;0.22;82.17;97805.81;5090964;28;20124;-48
2020/12/04 02:45:58;;;;;;;9.60;4.45;;;;;;;0.21;82.26;97804.25;5078812;28;20051;-48
2020/12/04 02:48:25;;;;;;;6.00;4.15;;;;;;;0.21;82.26;97804.25;5079908;28;20062;-49
2020/12/04 02:50:51;;;;;;;5.38;3.83;;;;;;;0.22;82.05;97805.81;5078255;28;20071;-50
2020/12/04 02:53:17;;;;;;;6.75;3.10;;;;;;;0.23;82.23;97799.25;5085025;28;20699;-48
2020/12/04 02:55:44;;;;;;;5.97;3.85;;;;;;;0.24;82.21;97792.66;5075282;28;20200;-48
2020/12/04 02:58:10;;;;;;;6.10;3.65;;;;;;;0.21;82.46;97804.25;5087662;28;20493;-48
2020/12/04 03:00:37;;;;;;;7.90;4.05;;;;;;;0.25;82.34;97788.78;5078346;28;20040;-49
2020/12/04 03:03:03;;;;;;;5.72;3.83;;;;;;;0.25;82.34;97794.22;5093924;28;20036;-50
2020/12/04 03:05:29;;;;;;;5.00;3.45;;;;;;;0.28;82.54;97773.69;5073934;28;20049;-49
2020/12/04 03:07:56;;;;;;;5.10;3.42;;;;;;;0.29;82.14;97784.22;5062876;28;20051;-48
2020/12/04 03:10:22;;;;;;;7.03;3.60;;;;;;;0.29;82.26;97778.78;5076643;28;20120;-50
2020/12/04 03:12:48;;;;;;;5.72;3.25;;;;;;;0.28;82.51;97776.41;5093267;28;20109;-49
2020/12/04 03:15:15;;;;;;;3.88;3.10;;;;;;;0.26;82.49;97770.53;5094945;28;20448;-49
2020/12/04 03:17:41;;;;;;;7.10;2.80;;;;;;;0.30;82.48;97780.38;5081210;28;20041;-48
2020/12/04 03:20:07;;;;;;;5.72;2.53;;;;;;;0.30;82.49;97791.25;5078608;28;20060;-48
2020/12/04 03:22:34;;;;;;;3.83;2.60;;;;;;;0.30;82.43;97785.81;5091553;28;20036;-48
2020/12/04 03:25:00;;;;;;;6.50;2.90;;;;;;;0.30;82.46;97796.69;5076862;28;20040;-49
2020/12/04 03:27:27;;;;;;;6.00;3.20;;;;;;;0.30;82.53;97793.97;5084564;28;20094;-48
2020/12/04 03:29:53;;;;;;;7.55;3.17;;;;;;;0.30;82.51;97791.25;5075409;28;20472;-50
2020/12/04 03:32:19;;;;;;;3.05;2.47;;;;;;;0.30;82.45;97798.63;5076746;28;20098;-49
2020/12/04 03:34:46;;;;;;;3.42;2.70;;;;;;;0.28;82.57;97801.69;5087883;28;20544;-48
2020/12/04 03:37:12;;;;;;;5.72;3.00;;;;;;;0.28;82.42;97800.91;5077818;28;20048;-53
2020/12/04 03:39:39;;;;;;;4.47;3.30;;;;;;;0.25;82.57;97794.22;5095960;28;20101;-52
2020/12/04 03:42:05;;;;;;;4.95;3.33;;;;;;;0.24;82.60;97795.38;5077217;28;20504;-52
2020/12/04 03:44:31;;;;;;;6.40;3.17;;;;;;;0.24;82.46;97795.38;5092510;28;20044;-50
2020/12/04 03:46:58;;;;;;;4.25;2.92;;;;;;;0.23;82.84;97801.97;5075931;28;20051;-50
2020/12/04 03:49:24;;;;;;;9.00;3.28;;;;;;;0.21;82.82;97798.81;5094349;28;20083;-49
2020/12/04 03:51:51;;;;;;;6.55;3.20;;;;;;;0.21;82.72;97793.38;5094704;28;20074;-49
2020/12/04 03:54:18;;;;;;;3.63;3.10;;;;;;;0.21;82.61;97787.94;5076363;28;20032;-49
2020/12/04 03:56:44;;;;;;;3.72;2.67;;;;;;;0.18;82.82;97788.63;5062979;28;20126;-51
2020/12/04 03:59:11;;;;;;;3.95;2.47;;;;;;;0.18;82.66;97794.06;5095263;28;20051;-48
2020/12/04 04:01:37;;;;;;;4.28;2.92;;;;;;;0.18;82.73;97790.53;5094464;28;20040;-51
2020/12/04 04:04:06;;;;;;;3.35;2.58;;;;;;;0.17;82.85;97778.06;5095490;28;20502;-48
2020/12/04 04:06:33;;;;;;;3.20;2.40;;;;;;;0.17;83.03;97787.03;5088773;28;20091;-50
2020/12/04 04:08:59;;;;;;;4.18;2.85;;;;;;;0.18;82.89;97782.38;5071514;28;20071;-49
2020/12/04 04:11:25;;;;;;;2.90;2.00;;;;;;;0.17;82.81;97792.47;5093481;28;20183;-47
2020/12/04 04:13:51;;;;;;;4.45;1.77;;;;;;;0.18;83.13;97785.09;5082322;28;20044;-48
2020/12/04 04:16:18;;;;;;;2.70;2.13;;;;;;;0.18;82.88;97777.75;5075794;28;20044;-49
2020/12/04 04:18:44;;;;;;;3.70;1.48;;;;;;;0.19;82.92;97787.47;5074341;28;20117;-50
2020/12/04 04:21:12;;;;;;;2.38;1.58;;;;;;;0.20;82.85;97796.41;5082147;28;20083;-50
2020/12/04 04:23:39;;;;;;;4.78;2.05;;;;;;;0.21;82.97;97790.66;5057891;28;20090;-48
2020/12/04 04:26:06;;;;;;;4.05;2.13;;;;;;;0.20;82.80;97797.22;5086287;28;20504;-48
2020/12/04 04:28:36;;;;;;;4.78;2.00;;;;;;;0.19;82.90;97792.91;5084659;28;20048;-50
2020/12/04 04:31:02;;;;;;;4.53;1.55;;;;;;;0.18;82.80;97780.47;5076597;28;20082;-48
2020/12/04 04:33:29;;;;;;;6.45;1.70;;;;;;;0.19;82.80;97779.31;5089846;28;20051;-50
2020/12/04 04:35:55;;;;;;;4.88;1.55;;;;;;;0.18;82.86;97766.84;5095371;28;20477;-50
2020/12/04 04:38:22;;;;;;;3.33;1.27;;;;;;;0.17;82.86;97776.16;5093786;28;20075;-50
2020/12/04 04:40:56;;;;;;;1.77;1.10;;;;;;;0.19;83.20;97781.22;5086667;28;20082;-50
2020/12/04 04:43:24;;;;;;;3.25;1.17;;;;;;;0.20;83.00;97780.09;5091605;28;20036;-50
2020/12/04 04:46:10;;;;;;;2.53;1.17;;;;;;;0.20;82.96;97783.63;5094227;28;20040;-49
2020/12/04 04:48:37;;;;;;;4.05;1.30;;;;;;;0.21;82.98;97781.69;5094451;28;20028;-52
2020/12/04 04:51:04;;;;;;;3.70;1.33;;;;;;;0.21;83.09;97787.13;5094656;28;20070;-48
2020/12/04 04:53:31;;;;;;;3.83;1.17;;;;;;;0.22;82.65;97783.25;5094888;28;20119;-49
2020/12/04 04:55:58;;;;;;;2.28;1.17;;;;;;;0.22;82.71;97781.31;5081903;28;20083;-49
2020/12/04 04:58:25;;;;;;;2.20;1.05;;;;;;;0.22;82.76;97778.59;5091440;28;20051;-48
2020/12/04 05:00:51;;;;;;;1.77;1.63;;;;;;;0.19;83.01;97779.31;5084973;28;20111;-51
2020/12/04 05:03:19;;;;;;;2.20;1.33;;;;;;;0.19;83.03;97767.63;5071958;28;20128;-49
2020/12/04 05:05:47;;;;;;;3.05;1.52;;;;;;;0.19;82.99;97779.31;5057382;28;20355;-48
2020/12/04 05:08:21;;;;;;;1.65;0.88;;;;;;;0.21;83.18;97776.25;5074412;28;20041;-50
2020/12/04 05:10:49;;;;;;;2.95;0.80;;;;;;;0.21;82.94;97777.03;5073510;28;20584;-48
2020/12/04 05:13:19;;;;;;;2.20;0.88;;;;;;;0.20;83.03;97780.88;5073381;28;20102;-50
2020/12/04 05:15:46;;;;;;;0.85;0.70;;;;;;;0.21;82.98;97776.25;5074177;28;20044;-49
2020/12/04 05:18:17;;;;;;;5.32;1.20;;;;;;;0.20;83.55;97780.09;5073110;28;20080;-49
2020/12/04 05:20:52;;;;;;;2.92;1.33;;;;;;;0.20;83.25;97778.16;5073690;28;20051;-48
2020/12/04 05:23:19;;;;;;;0.82;0.75;;;;;;;0.20;82.98;97766.50;5056990;28;20079;-48
2020/12/04 05:25:51;;;;;;;3.28;1.13;;;;;;;0.23;82.94;97766.59;5054465;28;20064;-48
2020/12/04 05:28:25;;;;;;;2.97;0.90;;;;;;;0.22;82.71;97781.31;5052286;28;20169;-50
2020/12/04 05:31:10;;;;;;;2.83;1.00;;;;;;;0.20;83.24;97772.72;5074264;28;20110;-50
2020/12/04 05:33:40;;;;;;;1.77;0.90;;;;;;;0.22;83.21;97781.31;5057568;28;20119;-48
2020/12/04 05:36:06;;;;;;;3.70;0.90;;;;;;;0.22;83.41;97773.16;5065514;28;20123;-48
2020/12/04 05:38:33;;;;;;;1.70;0.80;;;;;;;0.23;83.46;97774.75;5072334;28;20044;-50
2020/12/04 05:41:02;;;;;;;1.85;0.88;;;;;;;0.25;83.11;97767.03;5072807;28;20268;-48
2020/12/04 05:43:30;;;;;;;0.45;0.45;;;;;;;0.24;83.01;97765.44;5070632;28;20091;-49
2020/12/04 05:46:19;;;;;;;1.50;0.60;;;;;;;0.23;83.26;97763.88;5074061;28;20040;-48
2020/12/04 05:48:56;;;;;;;0.70;0.35;;;;;;;0.23;83.32;97774.75;5055525;28;20052;-48
2020/12/04 05:51:25;;;;;;;1.30;0.70;;;;;;;0.22;83.19;97772.38;5067222;28;20448;-49
2020/12/04 05:53:53;;;;;;;1.13;0.52;;;;;;;0.21;82.94;97787.94;5072316;28;20036;-53
2020/12/04 05:56:20;;;;;;;0.75;0.40;;;;;;;0.22;82.97;97773.16;5073325;28;20079;-52
2020/12/04 05:58:48;;;;;;;13.57;1.00;;;;;;;0.19;83.14;97773.06;5072980;28;20071;-49
2020/12/04 06:01:19;;;;;;;1.23;1.08;;;;;;;0.17;83.23;97781.59;5053770;28;20048;-52
2020/12/04 06:03:52;;;;;;;2.60;0.70;;;;;;;0.16;83.14;97781.94;5072894;28;20075;-48
2020/12/04 06:06:29;;;;;;;1.65;0.75;;;;;;;0.15;83.15;97786.59;5073554;28;20049;-50
2020/12/04 06:09:04;;;;;;;3.50;0.57;;;;;;;0.15;83.23;97786.59;5064106;28;20076;-50
2020/12/04 06:11:57;;;;;;;1.95;0.50;;;;;;;0.14;83.23;97781.47;5068523;28;20105;-50
2020/12/04 06:14:25;;;;;;;0.80;0.60;;;;;;;0.15;83.45;97778.44;5083579;28;20516;-49
2020/12/04 06:17:14;;;;;;;3.13;0.55;;;;;;;0.16;83.35;97787.38;5092753;28;20389;-49
2020/12/04 06:19:42;;;;;;;1.15;0.80;;;;;;;0.16;83.11;97790.09;5093798;28;20378;-48
2020/12/04 06:22:17;;;;;;;2.95;0.70;;;;;;;0.11;83.41;97777.53;5091530;28;20063;-48
2020/12/04 06:24:52;;;;;;;1.58;0.30;;;;;;;0.12;83.55;97787.28;5074200;28;20054;-50
2020/12/04 06:27:34;;;;;;;;;;;;;;;0.12;83.58;97794.66;5092557;28;20108;-48
2020/12/04 06:30:01;;;;;;;0.88;0.35;;;;;;;0.13;83.29;97791.59;5093593;28;19927;-50
2020/12/04 06:32:57;;;;;;;0.43;0.43;;;;;;;0.13;83.29;97791.59;5084160;28;20426;-47
2020/12/04 06:35:41;;;;;;;1.85;0.52;;;;;;;0.13;83.65;97791.59;5046131;28;20060;-50
2020/12/04 06:38:34;;;;;;;1.00;0.43;;;;;;;0.11;83.62;97787.66;5090415;28;20044;-47
2020/12/04 06:41:27;;;;;;;4.28;0.77;;;;;;;0.11;83.47;97793.84;5067186;28;20045;-50
2020/12/04 06:44:21;;;;;;;1.90;0.32;;;;;;;0.11;83.74;97793.84;5076880;28;20048;-47
2020/12/04 06:46:53;;;;;;;3.25;0.40;;;;;;;0.14;83.34;97790.44;5049602;28;20110;-49
2020/12/04 06:51:56;;;;;;;2.88;0.77;;;;;;;0.15;83.28;97789.31;5092161;28;20402;-50
2020/12/04 06:54:22;;;;;;;3.25;0.80;;;;;;;0.15;83.34;97794.75;5092040;28;20109;-49
2020/12/04 06:56:50;;;;;;;2.70;0.80;;;;;;;0.16;83.52;97795.56;5092763;28;20594;-48
2020/12/04 06:59:31;;;;;;;1.85;0.65;;;;;;;0.14;83.55;97782.28;5089849;28;20072;-51
2020/12/04 07:02:12;;;;;;;2.75;1.05;;;;;;;0.13;83.60;97777.19;5091931;28;20482;-49
2020/12/04 07:04:46;;;;;;;5.32;0.73;;;;;;;0.14;83.55;97793.16;5071983;28;20436;-49
2020/12/04 07:07:15;;;;;;;1.65;0.60;;;;;;;0.13;83.76;97778.00;5073430;28;20398;-48
2020/12/04 07:09:51;;;;;;;2.67;0.70;;;;;;;0.14;83.66;97787.72;5073144;28;20082;-48
2020/12/04 07:12:20;;;;;;;1.17;0.63;;;;;;;0.14;83.64;97795.88;5061137;28;20059;-47
2020/12/04 07:14:52;;;;;;;2.40;0.77;;;;;;;0.16;83.58;97790.88;5087953;28;20040;-48
2020/12/04 07:17:19;;;;;;;1.65;0.82;;;;;;;0.15;83.40;97800.19;5092742;28;20068;-50
2020/12/04 07:19:47;;;;;;;2.28;0.60;;;;;;;0.16;83.30;97790.09;5092643;28;20047;-47
2020/12/04 07:22:18;;;;;;;2.35;0.70;;;;;;;0.15;83.69;97797.47;5073036;28;20041;-48
2020/12/04 07:24:46;;;;;;;1.50;0.70;;;;;;;0.17;83.60;97795.19;5093086;28;20105;-49
2020/12/04 07:27:14;;;;;;;3.33;1.30;;;;;;;0.17;83.44;97803.34;5087365;28;20044;-48
2020/12/04 07:29:41;;;;;;;2.72;0.90;;;;;;;0.20;83.66;97790.97;5082470;28;20072;-47
2020/12/04 07:32:07;;;;;;;1.08;0.50;;;;;;;0.21;83.60;97787.94;5084865;28;20558;-47
2020/12/04 07:34:38;;;;;;;1.00;0.75;;;;;;;0.23;83.31;97793.00;5071994;28;20048;-47
2020/12/04 07:37:09;;;;;;;0.90;0.70;;;;;;;0.22;83.47;97794.94;5083584;28;20383;-48
2020/12/04 07:39:39;;;;;;;2.45;0.55;;;;;;;0.21;83.42;97790.66;5082361;28;20063;-48
2020/12/04 07:42:09;;;;;;;1.15;0.50;;;;;;;0.24;83.52;97803.53;5091535;28;20032;-47
2020/12/04 07:44:52;;;;;;;2.20;0.40;;;;;;;0.22;83.64;97785.97;5096720;28;20436;-53
2020/12/04 07:47:19;;;;;;;2.10;0.52;;;;;;;0.22;83.62;97794.94;5084878;28;20115;-51
2020/12/04 07:49:50;;;;;;;1.50;0.52;;;;;;;0.25;83.50;97804.31;5096229;28;20040;-53
2020/12/04 07:52:23;;;;;;;1.05;0.50;;;;;;;0.25;83.65;97788.78;5094483;28;20036;-53
2020/12/04 07:54:56;;;;;;;1.50;0.60;;;;;;;0.28;83.64;97804.44;5093971;28;20044;-50
2020/12/04 07:57:27;;;;;;;1.30;0.57;;;;;;;0.29;83.39;97805.97;5095023;28;20036;-48
2020/12/04 07:59:56;;;;;;;3.67;0.63;;;;;;;0.31;83.61;97809.16;5095541;28;20097;-51
2020/12/04 08:02:27;;;;;;;4.20;0.73;;;;;;;0.32;83.29;97802.56;5074104;28;20066;-49
2020/12/04 08:04:55;;;;;;;3.33;0.82;;;;;;;0.33;83.41;97814.25;5090629;28;20497;-49
2020/12/04 08:07:28;;;;;;;4.57;1.75;;;;;;;0.34;83.59;97818.56;5073884;28;20119;-48
2020/12/04 08:09:55;;;;;;;4.10;1.08;;;;;;;0.34;83.30;97826.72;5086820;28;20482;-46
2020/12/04 08:12:32;;;;;;;2.88;1.35;;;;;;;0.31;83.79;97809.16;5089285;28;20083;-52
2020/12/04 08:15:01;;;;;;;4.40;1.00;;;;;;;0.34;83.26;97811.19;5076638;28;20117;-51
2020/12/04 08:17:30;;;;;;;4.78;1.17;;;;;;;0.34;83.81;97808.47;5092950;28;20036;-49
2020/12/04 08:20:01;;;;;;;1.63;1.15;;;;;;;0.35;83.45;97815.47;5093222;28;20066;-51
2020/12/04 08:22:32;;;;;;;0.68;0.68;;;;;;;0.36;83.63;97817.06;5074525;28;20147;-53
2020/12/04 08:25:05;;;;;;;3.38;0.50;;;;;;;0.37;83.59;97813.19;5080322;28;20040;-50
2020/12/04 08:27:36;;;;;;;4.72;0.50;;;;;;;0.40;83.53;97820.66;5081821;28;20071;-53
2020/12/04 08:30:16;;;;;;;2.28;0.47;;;;;;;0.41;83.74;97810.56;5092579;28;20494;-48
2020/12/04 08:33:06;;;;;;;6.20;0.80;;;;;;;0.43;83.62;97811.00;5078950;28;20784;-51
2020/12/04 08:35:39;;;;;;;0.43;0.30;;;;;;;0.43;83.42;97803.63;5093192;28;20040;-47
2020/12/04 08:38:13;;;;;;;4.75;0.85;;;;;;;0.44;83.62;97824.28;5092530;28;20063;-51
2020/12/04 08:40:41;;;;;;;1.40;0.50;;;;;;;0.45;83.64;97798.63;5094485;28;20063;-49
2020/12/04 08:43:14;;;;;;;1.98;0.65;;;;;;;0.44;83.47;97802.50;5091458;28;20075;-52
2020/12/04 08:45:45;;;;;;;4.22;1.10;;;;;;;0.45;83.55;97820.41;5088870;28;20051;-51
2020/12/04 08:48:13;;;;;;;3.47;0.40;;;;;;;0.48;83.93;97808.03;5092069;28;20036;-48
2020/12/04 08:50:53;;;;;;;3.22;0.88;;;;;;;0.48;83.53;97811.53;5091322;28;20143;-51
2020/12/04 08:53:21;;;;;;;3.30;0.70;;;;;;;0.53;83.76;97815.97;5093183;28;20094;-49
2020/12/04 08:55:55;;;;;;;4.22;0.90;;;;;;;0.56;83.72;97802.41;5092123;28;20052;-50
2020/12/04 08:58:23;;;;;;;1.38;1.23;;;;;;;0.58;83.67;97802.09;5092905;28;20119;-51
2020/12/04 09:00:51;;;;;;;3.88;0.50;;;;;;;0.61;83.66;97788.53;5074376;28;20072;-50
2020/12/04 09:03:19;;;;;;;5.32;1.45;;;;;;;0.64;83.45;97787.03;5092375;28;20462;-47
2020/12/04 09:05:46;;;;;;;1.70;0.70;;;;;;;0.64;83.52;97778.88;5092969;28;20097;-48
2020/12/04 09:08:13;;;;;;;2.33;0.77;;;;;;;0.66;83.31;97770.38;5090349;28;20120;-49
2020/12/04 09:10:40;;;;;;;2.45;0.80;;;;;;;0.69;83.62;97766.94;5075155;28;20068;-50
2020/12/04 09:13:07;;;;;;;0.65;0.65;;;;;;;0.71;83.50;97772.81;5090066;28;20139;-48
2020/12/04 09:15:35;;;;;;;6.97;1.10;;;;;;;0.73;83.49;97746.81;5088968;28;20055;-52
2020/12/04 09:18:02;;;;;;;3.80;0.88;;;;;;;0.76;83.37;97750.78;5092029;28;20127;-52
2020/12/04 09:20:30;;;;;;;4.82;1.85;;;;;;;0.81;83.35;97756.75;5091475;28;20383;-49
2020/12/04 09:22:58;;;;;;;5.13;1.90;;;;;;;0.88;83.46;97739.75;5103443;28;20122;-49
2020/12/04 09:25:26;;;;;;;1.10;0.57;;;;;;;0.96;83.10;97771.47;5094886;28;20044;-52
2020/12/04 09:27:54;;;;;;;7.15;1.30;;;;;;;0.98;83.29;97764.50;5074553;28;20126;-50
2020/12/04 09:30:22;;;;;;;2.30;0.88;;;;;;;1.01;83.19;97776.63;5072843;28;20153;-50
2020/12/04 09:32:50;;;;;;;3.75;0.93;;;;;;;1.03;82.91;97775.13;5073496;28;20097;-49
2020/12/04 09:35:17;;;;;;;2.35;0.60;;;;;;;1.06;82.99;97776.38;5090967;28;20075;-55
2020/12/04 09:37:44;;;;;;;3.63;0.60;;;;;;;1.08;82.91;97765.91;5073699;28;20044;-50
2020/12/04 09:40:17;;;;;;;3.30;0.93;;;;;;;1.10;82.67;97785.41;5078742;28;20135;-49
2020/12/04 09:42:44;;;;;;;2.65;0.95;;;;;;;1.11;82.82;97779.59;5084979;28;20048;-49
2020/12/04 09:45:16;;;;;;;3.10;0.68;;;;;;;1.12;82.76;97778.47;5090267;28;20052;-50
2020/12/04 09:47:46;;;;;;;1.75;0.88;;;;;;;1.16;82.56;97784.00;5091289;28;20048;-51
2020/12/04 09:50:15;;;;;;;2.42;1.10;;;;;;;1.18;82.56;97787.16;5078664;28;20047;-50
2020/12/04 09:52:42;;;;;;;1.05;0.60;;;;;;;1.22;82.68;97782.56;5088955;28;20054;-52
2020/12/04 09:55:09;;;;;;;1.30;0.40;;;;;;;1.21;82.67;97772.81;5090630;28;20039;-53
2020/12/04 09:57:41;;;;;;;7.97;2.55;;;;;;;1.25;82.32;97787.28;5091318;28;20040;-54
2020/12/04 10:00:08;;;;;;;1.73;0.80;;;;;;;1.29;82.56;97771.84;5070708;28;20048;-54
2020/12/04 10:02:35;;;;;;;3.22;1.60;;;;;;;1.33;82.48;97767.22;5090004;28;20128;-50
2020/12/04 10:05:03;;;;;;;6.13;1.17;;;;;;;1.37;82.41;97770.03;5087027;28;20067;-53
2020/12/04 10:07:30;;;;;;;2.78;1.13;;;;;;;1.41;82.38;97768.97;5082668;28;20055;-54
2020/12/04 10:09:57;;;;;;;4.70;1.50;;;;;;;1.42;82.23;97776.00;5090877;28;20059;-51
2020/12/04 10:12:23;;;;;;;4.47;0.68;;;;;;;1.48;82.16;97763.69;5089499;28;20514;-51
2020/12/04 10:14:50;;;;;;;2.30;0.90;;;;;;;1.52;82.37;97753.63;5089728;28;20555;-50
2020/12/04 10:17:17;;;;;;;3.55;1.10;;;;;;;1.57;81.97;97760.72;5074043;28;20573;-48
2020/12/04 10:19:43;;;;;;;7.18;1.35;;;;;;;1.63;81.92;97754.63;5061341;28;20414;-49
2020/12/04 10:22:10;;;;;;;5.72;1.00;;;;;;;1.68;82.14;97759.00;5090533;28;20043;-53
2020/12/04 10:24:36;;;;;;;5.70;1.10;;;;;;;1.74;82.09;97761.09;5071327;28;20039;-49
2020/12/04 10:27:03;;;;;;;3.63;0.88;;;;;;;1.80;82.01;97765.09;5083973;28;20071;-48
2020/12/04 10:29:30;;;;;;;3.85;2.22;;;;;;;1.86;81.72;97749.22;5081835;28;20875;-49
2020/12/04 10:31:57;;;;;;;4.85;0.77;;;;;;;1.92;81.45;97752.44;5071626;28;20498;-49
2020/12/04 10:34:23;;;;;;;4.30;0.85;;;;;;;1.99;81.48;97747.13;5088865;28;20050;-48
2020/12/04 10:36:50;;;;;;;3.75;1.63;;;;;;;2.06;81.27;97730.91;5085277;28;20040;-47
2020/12/04 10:39:16;;;;;;;8.00;1.20;;;;;;;2.14;81.18;97713.50;5082880;28;20418;-47
2020/12/04 10:41:43;;;;;;;3.90;1.05;;;;;;;2.23;81.23;97719.50;5084245;28;20036;-47
2020/12/04 10:44:11;;;;;;;2.90;0.85;;;;;;;2.30;80.86;97716.91;5089312;28;20502;-48
2020/12/04 10:46:39;;;;;;;2.85;0.55;;;;;;;2.40;80.86;97705.38;5090298;28;20036;-48
2020/12/04 10:49:07;;;;;;;4.03;0.77;;;;;;;2.50;80.57;97704.75;5075243;28;20093;-46
2020/12/04 10:51:35;;;;;;;13.82;3.72;;;;;;;2.62;80.40;97704.53;5090120;28;20118;-48
2020/12/04 10:54:03;;;;;;;2.50;0.63;;;;;;;2.72;80.14;97697.66;5071339;28;20455;-50
2020/12/04 10:56:29;;;;;;;5.47;1.05;;;;;;;2.83;80.43;97695.88;5086300;28;20044;-52
2020/12/04 10:58:59;;;;;;;3.45;0.95;;;;;;;2.92;79.80;97699.13;5090446;28;20036;-52
2020/12/04 11:06:19;;;;;;;2.55;0.90;;;;;;;3.05;78.98;97692.28;5088265;28;20068;-49
2020/12/04 11:08:49;;;;;;;2.40;1.15;;;;;;;3.11;79.62;97685.34;5092279;28;20105;-48
2020/12/04 11:11:24;;;;;;;8.25;1.33;;;;;;;3.15;79.56;97679.94;5074137;28;20139;-49
2020/12/04 11:13:51;;;;;;;6.68;1.20;;;;;;;3.17;79.65;97666.69;5083824;28;20553;-53
2020/12/04 11:16:17;;;;;;;6.68;1.20;;;;;;;3.17;79.15;97653.00;5087019;28;20044;-48
2020/12/04 11:18:43;;;;;;;4.97;1.77;;;;;;;3.15;79.34;97658.84;5086867;28;20522;-50
2020/12/04 11:21:09;;;;;;;4.47;1.42;;;;;;;3.11;79.54;97646.28;5075186;28;20044;-48
2020/12/04 11:23:36;;;;;;;6.38;1.70;;;;;;;3.09;79.04;97652.13;5092084;28;20051;-48
2020/12/04 11:26:03;;;;;;;7.35;2.90;;;;;;;3.12;79.42;97647.88;5091147;28;20123;-51
2020/12/04 11:28:34;;;;;;;5.25;1.00;;;;;;;3.17;79.20;97655.75;5076921;28;20058;-50
2020/12/04 11:31:00;;;;;;;4.03;0.85;;;;;;;3.19;79.36;97659.69;5085266;28;20083;-47
2020/12/04 11:33:27;;;;;;;2.85;1.02;;;;;;;3.23;79.09;97646.81;5087835;28;20040;-52
2020/12/04 11:35:55;;;;;;;8.18;1.65;;;;;;;3.25;78.76;97649.22;5093109;28;20076;-52
2020/12/04 11:38:21;;;;;;;4.07;1.25;;;;;;;3.28;78.92;97640.25;5093069;28;20501;-49
2020/12/04 11:40:48;;;;;;;5.10;1.13;;;;;;;3.31;79.17;97639.53;5089919;28;20115;-49
2020/12/04 11:43:14;;;;;;;8.98;1.60;;;;;;;3.35;78.80;97640.34;5081076;28;20295;-47
2020/12/04 11:45:41;;;;;;;8.55;1.92;;;;;;;3.38;79.05;97634.13;5082522;28;20547;-47
2020/12/04 11:48:07;;;;;;;2.00;1.10;;;;;;;3.44;78.90;97629.91;5092770;28;20156;-51
2020/12/04 11:50:33;;;;;;;6.60;2.40;;;;;;;3.52;78.36;97623.34;5084844;28;20046;-50
2020/12/04 11:53:00;;;;;;;4.65;1.45;;;;;;;3.59;78.40;97612.47;5092564;28;20048;-51
2020/12/04 11:55:26;;;;;;;7.13;2.40;;;;;;;3.63;78.21;97619.56;5092674;28;20091;-46
2020/12/04 11:57:55;;;;;;;4.60;0.82;;;;;;;3.65;78.22;97616.47;5093535;28;20478;-49